sensor_id;sensor_type;location;lat;lon;timestamp;P1;durP1;ratioP1;P2;durP2;ratioP2
52542;SDS011;38449;52.696;6.186;2022-12-04T00:01:10;36.53;;;17.80;;
52542;SDS011;38449;52.696;6.186;2022-12-04T00:03:41;42.38;;;20.20;;
52542;SDS011;38449;52.696;6.186;2022-12-04T00:06:14;39.90;;;19.98;;
52542;SDS011;38449;52.696;6.186;2022-12-04T00:11:11;39.47;;;18.05;;
52542;SDS011;38449;52.696;6.186;2022-12-04T00:13:39;39.97;;;20.00;;
52542;SDS011;38449;52.696;6.186;2022-12-04T00:16:06;41.42;;;20.33;;
52542;SDS011;38449;52.696;6.186;2022-12-04T00:18:42;39.33;;;19.52;;
52542;SDS011;38449;52.696;6.186;2022-12-04T00:21:09;38.25;;;18.33;;
52542;SDS011;38449;52.696;6.186;2022-12-04T00:23:36;45.92;;;21.50;;
52542;SDS011;38449;52.696;6.186;2022-12-04T00:26:06;44.20;;;21.02;;
52542;SDS011;38449;52.696;6.186;2022-12-04T00:28:40;43.38;;;20.08;;
52542;SDS011;38449;52.696;6.186;2022-12-04T00:31:16;38.70;;;16.88;;
52542;SDS011;38449;52.696;6.186;2022-12-04T00:33:44;44.55;;;21.00;;
52542;SDS011;38449;52.696;6.186;2022-12-04T00:36:13;43.90;;;20.42;;
52542;SDS011;38449;52.696;6.186;2022-12-04T00:38:41;34.42;;;16.63;;
52542;SDS011;38449;52.696;6.186;2022-12-04T00:41:09;40.03;;;19.77;;
52542;SDS011;38449;52.696;6.186;2022-12-04T00:43:36;44.53;;;20.98;;
52542;SDS011;38449;52.696;6.186;2022-12-04T00:46:04;43.20;;;20.83;;
52542;SDS011;38449;52.696;6.186;2022-12-04T00:48:29;39.60;;;17.83;;
52542;SDS011;38449;52.696;6.186;2022-12-04T00:51:00;42.85;;;20.67;;
52542;SDS011;38449;52.696;6.186;2022-12-04T00:53:29;44.40;;;21.40;;
52542;SDS011;38449;52.696;6.186;2022-12-04T00:55:55;41.88;;;20.85;;
52542;SDS011;38449;52.696;6.186;2022-12-04T00:58:21;44.90;;;20.73;;
52542;SDS011;38449;52.696;6.186;2022-12-04T01:00:47;44.80;;;21.25;;
52542;SDS011;38449;52.696;6.186;2022-12-04T01:03:13;45.38;;;19.83;;
52542;SDS011;38449;52.696;6.186;2022-12-04T01:05:40;48.85;;;22.65;;
52542;SDS011;38449;52.696;6.186;2022-12-04T01:08:08;46.88;;;21.80;;
52542;SDS011;38449;52.696;6.186;2022-12-04T01:10:40;31.52;;;15.57;;
52542;SDS011;38449;52.696;6.186;2022-12-04T01:13:08;50.65;;;23.25;;
52542;SDS011;38449;52.696;6.186;2022-12-04T01:15:37;46.83;;;23.63;;
52542;SDS011;38449;52.696;6.186;2022-12-04T01:18:03;48.22;;;22.60;;
52542;SDS011;38449;52.696;6.186;2022-12-04T01:20:29;38.95;;;17.65;;
52542;SDS011;38449;52.696;6.186;2022-12-04T01:22:55;50.80;;;21.85;;
52542;SDS011;38449;52.696;6.186;2022-12-04T01:25:22;45.55;;;17.90;;
52542;SDS011;38449;52.696;6.186;2022-12-04T01:27:47;45.72;;;22.27;;
52542;SDS011;38449;52.696;6.186;2022-12-04T01:30:14;48.72;;;23.83;;
52542;SDS011;38449;52.696;6.186;2022-12-04T01:32:41;39.05;;;17.52;;
52542;SDS011;38449;52.696;6.186;2022-12-04T01:35:08;47.08;;;22.02;;
52542;SDS011;38449;52.696;6.186;2022-12-04T01:37:34;45.60;;;21.73;;
52542;SDS011;38449;52.696;6.186;2022-12-04T01:40:01;50.47;;;23.55;;
52542;SDS011;38449;52.696;6.186;2022-12-04T01:42:28;46.17;;;21.95;;
52542;SDS011;38449;52.696;6.186;2022-12-04T01:48:01;45.70;;;21.83;;
52542;SDS011;38449;52.696;6.186;2022-12-04T01:50:33;47.92;;;22.38;;
52542;SDS011;38449;52.696;6.186;2022-12-04T01:52:59;51.83;;;22.35;;
52542;SDS011;38449;52.696;6.186;2022-12-04T01:55:24;44.95;;;21.33;;
52542;SDS011;38449;52.696;6.186;2022-12-04T01:57:50;44.03;;;21.08;;
52542;SDS011;38449;52.696;6.186;2022-12-04T02:00:16;48.08;;;22.90;;
52542;SDS011;38449;52.696;6.186;2022-12-04T02:02:44;48.92;;;23.83;;
52542;SDS011;38449;52.696;6.186;2022-12-04T02:05:13;44.95;;;22.27;;
52542;SDS011;38449;52.696;6.186;2022-12-04T02:07:40;44.90;;;21.45;;
52542;SDS011;38449;52.696;6.186;2022-12-04T02:10:10;45.65;;;22.02;;
52542;SDS011;38449;52.696;6.186;2022-12-04T02:12:58;45.10;;;22.33;;
52542;SDS011;38449;52.696;6.186;2022-12-04T02:21:10;46.88;;;23.15;;
52542;SDS011;38449;52.696;6.186;2022-12-04T02:23:49;49.17;;;22.77;;
52542;SDS011;38449;52.696;6.186;2022-12-04T02:29:15;50.20;;;23.80;;
52542;SDS011;38449;52.696;6.186;2022-12-04T02:31:50;46.42;;;20.75;;
52542;SDS011;38449;52.696;6.186;2022-12-04T02:34:56;52.10;;;22.25;;
52542;SDS011;38449;52.696;6.186;2022-12-04T02:37:37;53.08;;;24.85;;
52542;SDS011;38449;52.696;6.186;2022-12-04T02:45:21;48.45;;;22.50;;
52542;SDS011;38449;52.696;6.186;2022-12-04T02:47:50;47.55;;;23.10;;
52542;SDS011;38449;52.696;6.186;2022-12-04T02:50:19;46.90;;;22.48;;
52542;SDS011;38449;52.696;6.186;2022-12-04T02:53:07;50.58;;;24.33;;
52542;SDS011;38449;52.696;6.186;2022-12-04T02:55:48;50.22;;;23.40;;
52542;SDS011;38449;52.696;6.186;2022-12-04T02:58:23;48.10;;;23.95;;
52542;SDS011;38449;52.696;6.186;2022-12-04T03:00:59;47.50;;;23.98;;
52542;SDS011;38449;52.696;6.186;2022-12-04T03:03:29;51.08;;;25.05;;
52542;SDS011;38449;52.696;6.186;2022-12-04T03:06:04;47.47;;;21.98;;
52542;SDS011;38449;52.696;6.186;2022-12-04T03:08:38;53.58;;;24.73;;
52542;SDS011;38449;52.696;6.186;2022-12-04T03:11:07;46.90;;;23.45;;
52542;SDS011;38449;52.696;6.186;2022-12-04T03:13:44;51.15;;;24.30;;
52542;SDS011;38449;52.696;6.186;2022-12-04T03:18:44;45.60;;;22.73;;
52542;SDS011;38449;52.696;6.186;2022-12-04T03:21:25;50.67;;;20.50;;
52542;SDS011;38449;52.696;6.186;2022-12-04T03:24:02;47.90;;;24.08;;
52542;SDS011;38449;52.696;6.186;2022-12-04T03:29:17;51.13;;;24.25;;
52542;SDS011;38449;52.696;6.186;2022-12-04T03:32:09;50.92;;;23.65;;
52542;SDS011;38449;52.696;6.186;2022-12-04T03:37:42;44.35;;;20.52;;
52542;SDS011;38449;52.696;6.186;2022-12-04T03:40:22;55.28;;;25.60;;
52542;SDS011;38449;52.696;6.186;2022-12-04T03:43:07;44.65;;;20.38;;
52542;SDS011;38449;52.696;6.186;2022-12-04T03:45:43;51.25;;;25.48;;
52542;SDS011;38449;52.696;6.186;2022-12-04T03:48:21;49.20;;;22.60;;
52542;SDS011;38449;52.696;6.186;2022-12-04T03:50:51;48.50;;;23.20;;
52542;SDS011;38449;52.696;6.186;2022-12-04T03:53:29;55.90;;;25.20;;
52542;SDS011;38449;52.696;6.186;2022-12-04T03:58:37;50.30;;;24.50;;
52542;SDS011;38449;52.696;6.186;2022-12-04T04:01:09;49.72;;;23.90;;
52542;SDS011;38449;52.696;6.186;2022-12-04T04:03:38;54.97;;;24.60;;
52542;SDS011;38449;52.696;6.186;2022-12-04T04:06:11;48.13;;;24.27;;
52542;SDS011;38449;52.696;6.186;2022-12-04T04:08:42;51.55;;;25.20;;
52542;SDS011;38449;52.696;6.186;2022-12-04T04:11:12;52.50;;;26.08;;
52542;SDS011;38449;52.696;6.186;2022-12-04T04:13:53;49.63;;;23.83;;
52542;SDS011;38449;52.696;6.186;2022-12-04T04:16:44;50.58;;;24.15;;
52542;SDS011;38449;52.696;6.186;2022-12-04T04:19:33;53.08;;;25.13;;
52542;SDS011;38449;52.696;6.186;2022-12-04T04:22:23;51.13;;;22.98;;
52542;SDS011;38449;52.696;6.186;2022-12-04T04:25:14;47.28;;;22.95;;
52542;SDS011;38449;52.696;6.186;2022-12-04T04:27:49;51.20;;;24.50;;
52542;SDS011;38449;52.696;6.186;2022-12-04T04:30:17;46.45;;;22.17;;
52542;SDS011;38449;52.696;6.186;2022-12-04T04:38:38;54.42;;;25.13;;
52542;SDS011;38449;52.696;6.186;2022-12-04T04:41:18;47.92;;;23.33;;
52542;SDS011;38449;52.696;6.186;2022-12-04T04:46:47;48.73;;;23.60;;
52542;SDS011;38449;52.696;6.186;2022-12-04T04:49:16;53.17;;;24.23;;
52542;SDS011;38449;52.696;6.186;2022-12-04T04:51:48;49.17;;;24.30;;
52542;SDS011;38449;52.696;6.186;2022-12-04T04:54:13;55.83;;;25.85;;
52542;SDS011;38449;52.696;6.186;2022-12-04T04:56:42;49.75;;;22.13;;
52542;SDS011;38449;52.696;6.186;2022-12-04T04:59:10;54.35;;;24.30;;
52542;SDS011;38449;52.696;6.186;2022-12-04T05:01:37;51.78;;;23.35;;
52542;SDS011;38449;52.696;6.186;2022-12-04T05:04:05;52.60;;;25.58;;
52542;SDS011;38449;52.696;6.186;2022-12-04T05:06:31;46.90;;;23.58;;
52542;SDS011;38449;52.696;6.186;2022-12-04T05:08:57;50.70;;;24.42;;
52542;SDS011;38449;52.696;6.186;2022-12-04T05:11:23;51.90;;;24.45;;
52542;SDS011;38449;52.696;6.186;2022-12-04T05:13:50;54.42;;;24.85;;
52542;SDS011;38449;52.696;6.186;2022-12-04T05:16:16;52.50;;;25.35;;
52542;SDS011;38449;52.696;6.186;2022-12-04T05:18:42;48.90;;;21.67;;
52542;SDS011;38449;52.696;6.186;2022-12-04T05:21:29;52.30;;;24.58;;
52542;SDS011;38449;52.696;6.186;2022-12-04T05:23:54;45.45;;;19.73;;
52542;SDS011;38449;52.696;6.186;2022-12-04T05:26:20;48.88;;;23.13;;
52542;SDS011;38449;52.696;6.186;2022-12-04T05:28:47;50.65;;;23.48;;
52542;SDS011;38449;52.696;6.186;2022-12-04T05:31:14;47.00;;;22.33;;
52542;SDS011;38449;52.696;6.186;2022-12-04T05:33:39;47.45;;;21.33;;
52542;SDS011;38449;52.696;6.186;2022-12-04T05:36:06;45.20;;;21.30;;
52542;SDS011;38449;52.696;6.186;2022-12-04T05:38:33;42.38;;;20.63;;
52542;SDS011;38449;52.696;6.186;2022-12-04T05:41:03;47.10;;;23.30;;
52542;SDS011;38449;52.696;6.186;2022-12-04T05:43:30;48.03;;;23.65;;
52542;SDS011;38449;52.696;6.186;2022-12-04T05:46:01;51.63;;;21.50;;
52542;SDS011;38449;52.696;6.186;2022-12-04T05:48:28;52.33;;;24.95;;
52542;SDS011;38449;52.696;6.186;2022-12-04T05:50:55;51.60;;;24.75;;
52542;SDS011;38449;52.696;6.186;2022-12-04T05:53:20;46.13;;;22.67;;
52542;SDS011;38449;52.696;6.186;2022-12-04T05:55:58;47.88;;;22.55;;
52542;SDS011;38449;52.696;6.186;2022-12-04T05:58:26;49.50;;;20.63;;
52542;SDS011;38449;52.696;6.186;2022-12-04T06:00:52;44.95;;;19.92;;
52542;SDS011;38449;52.696;6.186;2022-12-04T06:03:18;50.63;;;23.48;;
52542;SDS011;38449;52.696;6.186;2022-12-04T06:05:45;49.70;;;24.40;;
52542;SDS011;38449;52.696;6.186;2022-12-04T06:08:11;45.38;;;21.45;;
52542;SDS011;38449;52.696;6.186;2022-12-04T06:10:37;54.03;;;25.50;;
52542;SDS011;38449;52.696;6.186;2022-12-04T06:13:03;50.90;;;23.45;;
52542;SDS011;38449;52.696;6.186;2022-12-04T06:15:38;48.60;;;21.42;;
52542;SDS011;38449;52.696;6.186;2022-12-04T06:18:05;50.13;;;21.83;;
52542;SDS011;38449;52.696;6.186;2022-12-04T06:20:33;41.28;;;20.33;;
52542;SDS011;38449;52.696;6.186;2022-12-04T06:22:59;47.53;;;22.00;;
52542;SDS011;38449;52.696;6.186;2022-12-04T06:25:26;55.83;;;25.50;;
52542;SDS011;38449;52.696;6.186;2022-12-04T06:27:53;50.30;;;24.65;;
52542;SDS011;38449;52.696;6.186;2022-12-04T06:30:19;52.55;;;22.85;;
52542;SDS011;38449;52.696;6.186;2022-12-04T06:32:44;52.80;;;25.83;;
52542;SDS011;38449;52.696;6.186;2022-12-04T06:35:11;53.97;;;26.40;;
52542;SDS011;38449;52.696;6.186;2022-12-04T06:37:37;46.38;;;20.80;;
52542;SDS011;38449;52.696;6.186;2022-12-04T06:40:08;52.53;;;24.90;;
52542;SDS011;38449;52.696;6.186;2022-12-04T06:42:34;49.80;;;23.33;;
52542;SDS011;38449;52.696;6.186;2022-12-04T06:44:59;51.28;;;25.30;;
52542;SDS011;38449;52.696;6.186;2022-12-04T06:47:25;48.33;;;20.98;;
52542;SDS011;38449;52.696;6.186;2022-12-04T06:49:51;40.72;;;19.15;;
52542;SDS011;38449;52.696;6.186;2022-12-04T06:52:17;45.80;;;20.88;;
52542;SDS011;38449;52.696;6.186;2022-12-04T06:54:43;49.45;;;22.90;;
52542;SDS011;38449;52.696;6.186;2022-12-04T06:57:08;49.20;;;23.38;;
52542;SDS011;38449;52.696;6.186;2022-12-04T06:59:34;48.70;;;22.15;;
52542;SDS011;38449;52.696;6.186;2022-12-04T07:02:03;49.42;;;23.65;;
52542;SDS011;38449;52.696;6.186;2022-12-04T07:04:29;41.35;;;19.42;;
52542;SDS011;38449;52.696;6.186;2022-12-04T07:06:54;43.53;;;19.20;;
52542;SDS011;38449;52.696;6.186;2022-12-04T07:09:20;50.33;;;23.35;;
52542;SDS011;38449;52.696;6.186;2022-12-04T07:11:46;56.75;;;25.40;;
52542;SDS011;38449;52.696;6.186;2022-12-04T07:14:12;44.00;;;20.30;;
52542;SDS011;38449;52.696;6.186;2022-12-04T07:16:40;47.28;;;22.38;;
52542;SDS011;38449;52.696;6.186;2022-12-04T07:19:07;52.10;;;24.00;;
52542;SDS011;38449;52.696;6.186;2022-12-04T07:21:40;43.25;;;20.33;;
52542;SDS011;38449;52.696;6.186;2022-12-04T07:24:06;48.55;;;24.13;;
52542;SDS011;38449;52.696;6.186;2022-12-04T07:26:33;49.08;;;23.33;;
52542;SDS011;38449;52.696;6.186;2022-12-04T07:28:59;44.28;;;19.88;;
52542;SDS011;38449;52.696;6.186;2022-12-04T07:31:26;43.30;;;20.98;;
52542;SDS011;38449;52.696;6.186;2022-12-04T07:33:53;45.00;;;22.42;;
52542;SDS011;38449;52.696;6.186;2022-12-04T07:36:19;46.85;;;21.77;;
52542;SDS011;38449;52.696;6.186;2022-12-04T07:38:47;48.97;;;24.73;;
52542;SDS011;38449;52.696;6.186;2022-12-04T07:41:13;49.78;;;24.95;;
52542;SDS011;38449;52.696;6.186;2022-12-04T07:43:39;46.88;;;22.33;;
52542;SDS011;38449;52.696;6.186;2022-12-04T07:46:05;47.00;;;22.15;;
52542;SDS011;38449;52.696;6.186;2022-12-04T07:48:38;41.08;;;17.75;;
52542;SDS011;38449;52.696;6.186;2022-12-04T07:51:07;43.25;;;21.05;;
52542;SDS011;38449;52.696;6.186;2022-12-04T07:53:41;45.63;;;21.88;;
52542;SDS011;38449;52.696;6.186;2022-12-04T07:56:07;49.30;;;22.00;;
52542;SDS011;38449;52.696;6.186;2022-12-04T07:58:34;43.35;;;20.67;;
52542;SDS011;38449;52.696;6.186;2022-12-04T08:01:03;45.88;;;21.73;;
52542;SDS011;38449;52.696;6.186;2022-12-04T08:03:30;46.70;;;23.02;;
52542;SDS011;38449;52.696;6.186;2022-12-04T08:05:58;45.40;;;20.02;;
52542;SDS011;38449;52.696;6.186;2022-12-04T08:08:25;47.03;;;22.02;;
52542;SDS011;38449;52.696;6.186;2022-12-04T08:10:51;48.80;;;20.02;;
52542;SDS011;38449;52.696;6.186;2022-12-04T08:13:16;46.03;;;21.90;;
52542;SDS011;38449;52.696;6.186;2022-12-04T08:15:43;40.53;;;19.77;;
52542;SDS011;38449;52.696;6.186;2022-12-04T08:18:12;37.33;;;18.00;;
52542;SDS011;38449;52.696;6.186;2022-12-04T08:20:38;45.08;;;21.05;;
52542;SDS011;38449;52.696;6.186;2022-12-04T08:23:05;44.30;;;20.85;;
52542;SDS011;38449;52.696;6.186;2022-12-04T08:25:31;45.45;;;22.92;;
52542;SDS011;38449;52.696;6.186;2022-12-04T08:27:56;39.60;;;19.15;;
52542;SDS011;38449;52.696;6.186;2022-12-04T08:30:23;44.85;;;21.55;;
52542;SDS011;38449;52.696;6.186;2022-12-04T08:32:49;46.85;;;21.83;;
52542;SDS011;38449;52.696;6.186;2022-12-04T08:35:15;41.40;;;20.38;;
52542;SDS011;38449;52.696;6.186;2022-12-04T08:37:41;43.38;;;21.15;;
52542;SDS011;38449;52.696;6.186;2022-12-04T08:40:07;40.78;;;18.80;;
52542;SDS011;38449;52.696;6.186;2022-12-04T08:42:33;42.55;;;21.08;;
52542;SDS011;38449;52.696;6.186;2022-12-04T08:44:58;43.15;;;20.55;;
52542;SDS011;38449;52.696;6.186;2022-12-04T08:47:25;44.33;;;20.83;;
52542;SDS011;38449;52.696;6.186;2022-12-04T08:49:50;41.72;;;19.17;;
52542;SDS011;38449;52.696;6.186;2022-12-04T08:52:17;42.13;;;19.98;;
52542;SDS011;38449;52.696;6.186;2022-12-04T08:54:58;46.53;;;20.17;;
52542;SDS011;38449;52.696;6.186;2022-12-04T08:57:25;37.00;;;18.25;;
52542;SDS011;38449;52.696;6.186;2022-12-04T08:59:51;47.13;;;21.17;;
52542;SDS011;38449;52.696;6.186;2022-12-04T09:02:17;36.50;;;18.63;;
52542;SDS011;38449;52.696;6.186;2022-12-04T09:04:58;32.92;;;16.13;;
52542;SDS011;38449;52.696;6.186;2022-12-04T09:07:24;40.35;;;19.67;;
52542;SDS011;38449;52.696;6.186;2022-12-04T09:09:50;37.65;;;17.60;;
52542;SDS011;38449;52.696;6.186;2022-12-04T09:12:20;39.97;;;19.77;;
52542;SDS011;38449;52.696;6.186;2022-12-04T09:14:46;45.28;;;20.42;;
52542;SDS011;38449;52.696;6.186;2022-12-04T09:17:13;41.58;;;19.83;;
52542;SDS011;38449;52.696;6.186;2022-12-04T09:19:44;39.58;;;19.15;;
52542;SDS011;38449;52.696;6.186;2022-12-04T09:22:09;42.67;;;19.77;;
52542;SDS011;38449;52.696;6.186;2022-12-04T09:24:35;44.78;;;21.50;;
52542;SDS011;38449;52.696;6.186;2022-12-04T09:27:01;42.30;;;20.02;;
52542;SDS011;38449;52.696;6.186;2022-12-04T09:29:27;43.83;;;20.83;;
52542;SDS011;38449;52.696;6.186;2022-12-04T09:31:55;43.75;;;20.42;;
52542;SDS011;38449;52.696;6.186;2022-12-04T09:34:20;42.28;;;20.17;;
52542;SDS011;38449;52.696;6.186;2022-12-04T09:36:46;40.63;;;21.52;;
52542;SDS011;38449;52.696;6.186;2022-12-04T09:39:11;45.58;;;21.23;;
52542;SDS011;38449;52.696;6.186;2022-12-04T09:45:29;45.22;;;21.98;;
52542;SDS011;38449;52.696;6.186;2022-12-04T09:47:53;43.80;;;18.63;;
52542;SDS011;38449;52.696;6.186;2022-12-04T09:50:23;42.97;;;20.15;;
52542;SDS011;38449;52.696;6.186;2022-12-04T09:53:05;46.50;;;21.95;;
52542;SDS011;38449;52.696;6.186;2022-12-04T09:58:19;47.50;;;22.45;;
52542;SDS011;38449;52.696;6.186;2022-12-04T10:00:50;46.63;;;21.55;;
52542;SDS011;38449;52.696;6.186;2022-12-04T10:03:17;44.78;;;21.73;;
52542;SDS011;38449;52.696;6.186;2022-12-04T10:09:02;47.75;;;21.88;;
52542;SDS011;38449;52.696;6.186;2022-12-04T10:27:24;57.17;;;23.08;;
52542;SDS011;38449;52.696;6.186;2022-12-04T10:29:54;47.72;;;20.77;;
52542;SDS011;38449;52.696;6.186;2022-12-04T10:32:28;51.88;;;23.23;;
52542;SDS011;38449;52.696;6.186;2022-12-04T10:34:57;50.28;;;23.58;;
52542;SDS011;38449;52.696;6.186;2022-12-04T10:37:29;54.13;;;24.88;;
52542;SDS011;38449;52.696;6.186;2022-12-04T10:40:08;50.10;;;23.48;;
52542;SDS011;38449;52.696;6.186;2022-12-04T10:42:54;52.28;;;23.27;;
52542;SDS011;38449;52.696;6.186;2022-12-04T10:45:24;52.55;;;23.67;;
52542;SDS011;38449;52.696;6.186;2022-12-04T10:47:54;50.58;;;22.02;;
52542;SDS011;38449;52.696;6.186;2022-12-04T10:50:22;51.58;;;24.15;;
52542;SDS011;38449;52.696;6.186;2022-12-04T10:52:48;51.08;;;24.77;;
52542;SDS011;38449;52.696;6.186;2022-12-04T10:55:15;61.05;;;28.20;;
52542;SDS011;38449;52.696;6.186;2022-12-04T10:57:56;54.28;;;25.55;;
52542;SDS011;38449;52.696;6.186;2022-12-04T11:00:29;55.17;;;23.92;;
52542;SDS011;38449;52.696;6.186;2022-12-04T11:02:58;46.10;;;21.42;;
52542;SDS011;38449;52.696;6.186;2022-12-04T11:05:42;52.95;;;26.15;;
52542;SDS011;38449;52.696;6.186;2022-12-04T11:08:20;50.33;;;23.80;;
52542;SDS011;38449;52.696;6.186;2022-12-04T11:10:55;46.05;;;21.95;;
52542;SDS011;38449;52.696;6.186;2022-12-04T11:13:24;58.50;;;25.98;;
52542;SDS011;38449;52.696;6.186;2022-12-04T11:15:54;45.38;;;21.00;;
52542;SDS011;38449;52.696;6.186;2022-12-04T11:18:31;55.95;;;37.05;;
52542;SDS011;38449;52.696;6.186;2022-12-04T11:21:00;53.53;;;25.75;;
52542;SDS011;38449;52.696;6.186;2022-12-04T11:23:33;54.30;;;25.27;;
52542;SDS011;38449;52.696;6.186;2022-12-04T11:26:07;53.50;;;24.75;;
52542;SDS011;38449;52.696;6.186;2022-12-04T11:28:33;57.13;;;26.83;;
52542;SDS011;38449;52.696;6.186;2022-12-04T11:31:02;47.85;;;23.55;;
52542;SDS011;38449;52.696;6.186;2022-12-04T11:33:42;52.70;;;25.00;;
52542;SDS011;38449;52.696;6.186;2022-12-04T11:36:17;49.80;;;25.02;;
52542;SDS011;38449;52.696;6.186;2022-12-04T11:45:03;47.58;;;23.05;;
52542;SDS011;38449;52.696;6.186;2022-12-04T11:47:54;47.20;;;23.17;;
52542;SDS011;38449;52.696;6.186;2022-12-04T11:53:14;45.50;;;22.67;;
52542;SDS011;38449;52.696;6.186;2022-12-04T11:59:17;41.05;;;20.70;;
52542;SDS011;38449;52.696;6.186;2022-12-04T12:17:06;38.70;;;19.40;;
52542;SDS011;38449;52.696;6.186;2022-12-04T12:19:42;36.45;;;18.10;;
52542;SDS011;38449;52.696;6.186;2022-12-04T12:22:35;35.67;;;17.63;;
52542;SDS011;38449;52.696;6.186;2022-12-04T12:25:20;37.67;;;18.10;;
52542;SDS011;38449;52.696;6.186;2022-12-04T12:30:54;31.92;;;16.48;;
52542;SDS011;38449;52.696;6.186;2022-12-04T12:33:45;33.88;;;17.63;;
52542;SDS011;38449;52.696;6.186;2022-12-04T12:41:30;32.40;;;16.80;;
52542;SDS011;38449;52.696;6.186;2022-12-04T12:46:49;29.80;;;15.35;;
52542;SDS011;38449;52.696;6.186;2022-12-04T12:49:25;31.80;;;17.15;;
52542;SDS011;38449;52.696;6.186;2022-12-04T12:55:19;32.13;;;17.00;;
52542;SDS011;38449;52.696;6.186;2022-12-04T12:57:54;28.45;;;15.07;;
52542;SDS011;38449;52.696;6.186;2022-12-04T13:00:36;28.00;;;15.68;;
52542;SDS011;38449;52.696;6.186;2022-12-04T13:03:25;26.90;;;15.07;;
52542;SDS011;38449;52.696;6.186;2022-12-04T13:05:59;23.40;;;12.73;;
52542;SDS011;38449;52.696;6.186;2022-12-04T13:08:43;24.80;;;12.65;;
52542;SDS011;38449;52.696;6.186;2022-12-04T13:11:30;24.83;;;12.82;;
52542;SDS011;38449;52.696;6.186;2022-12-04T13:13:57;27.25;;;13.90;;
52542;SDS011;38449;52.696;6.186;2022-12-04T13:19:20;23.73;;;12.98;;
52542;SDS011;38449;52.696;6.186;2022-12-04T13:22:28;24.50;;;13.43;;
52542;SDS011;38449;52.696;6.186;2022-12-04T13:25:24;26.23;;;14.23;;
52542;SDS011;38449;52.696;6.186;2022-12-04T13:27:57;25.98;;;13.82;;
52542;SDS011;38449;52.696;6.186;2022-12-04T13:33:32;20.73;;;10.20;;
52542;SDS011;38449;52.696;6.186;2022-12-04T13:41:55;29.75;;;14.45;;
52542;SDS011;38449;52.696;6.186;2022-12-04T13:44:26;25.20;;;12.75;;
52542;SDS011;38449;52.696;6.186;2022-12-04T13:46:56;26.75;;;14.20;;
52542;SDS011;38449;52.696;6.186;2022-12-04T13:49:26;26.52;;;13.73;;
52542;SDS011;38449;52.696;6.186;2022-12-04T13:51:52;26.50;;;13.50;;
52542;SDS011;38449;52.696;6.186;2022-12-04T13:54:41;27.65;;;14.40;;
52542;SDS011;38449;52.696;6.186;2022-12-04T13:57:17;25.45;;;13.20;;
52542;SDS011;38449;52.696;6.186;2022-12-04T13:59:47;38.08;;;17.00;;
52542;SDS011;38449;52.696;6.186;2022-12-04T14:02:27;24.30;;;12.75;;
52542;SDS011;38449;52.696;6.186;2022-12-04T14:05:11;26.15;;;12.57;;
52542;SDS011;38449;52.696;6.186;2022-12-04T14:07:38;22.98;;;11.70;;
52542;SDS011;38449;52.696;6.186;2022-12-04T14:12:47;21.90;;;10.48;;
52542;SDS011;38449;52.696;6.186;2022-12-04T14:15:20;24.30;;;14.10;;
52542;SDS011;38449;52.696;6.186;2022-12-04T14:20:29;22.92;;;13.38;;
52542;SDS011;38449;52.696;6.186;2022-12-04T14:26:28;25.50;;;12.80;;
52542;SDS011;38449;52.696;6.186;2022-12-04T14:29:06;24.63;;;13.25;;
52542;SDS011;38449;52.696;6.186;2022-12-04T14:32:14;22.45;;;12.50;;
52542;SDS011;38449;52.696;6.186;2022-12-04T14:34:42;25.27;;;11.98;;
52542;SDS011;38449;52.696;6.186;2022-12-04T14:37:16;26.00;;;13.77;;
52542;SDS011;38449;52.696;6.186;2022-12-04T14:39:46;24.63;;;13.27;;
52542;SDS011;38449;52.696;6.186;2022-12-04T14:42:19;23.95;;;13.52;;
52542;SDS011;38449;52.696;6.186;2022-12-04T14:45:04;23.90;;;12.90;;
52542;SDS011;38449;52.696;6.186;2022-12-04T14:50:43;30.65;;;14.23;;
52542;SDS011;38449;52.696;6.186;2022-12-04T14:53:34;20.98;;;12.25;;
52542;SDS011;38449;52.696;6.186;2022-12-04T14:59:16;21.88;;;12.27;;
52542;SDS011;38449;52.696;6.186;2022-12-04T15:01:45;24.10;;;12.98;;
52542;SDS011;38449;52.696;6.186;2022-12-04T15:04:23;23.80;;;13.60;;
52542;SDS011;38449;52.696;6.186;2022-12-04T15:06:52;24.50;;;13.77;;
52542;SDS011;38449;52.696;6.186;2022-12-04T15:09:19;22.83;;;12.85;;
52542;SDS011;38449;52.696;6.186;2022-12-04T15:15:01;26.40;;;14.05;;
52542;SDS011;38449;52.696;6.186;2022-12-04T15:17:41;23.73;;;12.13;;
52542;SDS011;38449;52.696;6.186;2022-12-04T15:20:15;28.52;;;14.27;;
52542;SDS011;38449;52.696;6.186;2022-12-04T15:22:43;27.80;;;14.32;;
52542;SDS011;38449;52.696;6.186;2022-12-04T15:25:14;26.67;;;15.07;;
52542;SDS011;38449;52.696;6.186;2022-12-04T15:27:42;28.88;;;15.35;;
52542;SDS011;38449;52.696;6.186;2022-12-04T15:30:16;26.25;;;14.20;;
52542;SDS011;38449;52.696;6.186;2022-12-04T15:32:44;28.42;;;13.60;;
52542;SDS011;38449;52.696;6.186;2022-12-04T15:35:15;25.63;;;13.95;;
52542;SDS011;38449;52.696;6.186;2022-12-04T15:37:46;26.80;;;15.48;;
52542;SDS011;38449;52.696;6.186;2022-12-04T15:40:19;30.80;;;15.73;;
52542;SDS011;38449;52.696;6.186;2022-12-04T15:42:47;30.20;;;16.35;;
52542;SDS011;38449;52.696;6.186;2022-12-04T15:55:15;29.73;;;15.73;;
52542;SDS011;38449;52.696;6.186;2022-12-04T15:57:42;31.25;;;15.85;;
52542;SDS011;38449;52.696;6.186;2022-12-04T16:00:29;28.88;;;14.68;;
52542;SDS011;38449;52.696;6.186;2022-12-04T16:03:00;28.95;;;15.27;;
52542;SDS011;38449;52.696;6.186;2022-12-04T16:05:31;26.70;;;14.60;;
52542;SDS011;38449;52.696;6.186;2022-12-04T16:08:46;27.92;;;14.23;;
52542;SDS011;38449;52.696;6.186;2022-12-04T16:11:00;29.65;;;15.77;;
52542;SDS011;38449;52.696;6.186;2022-12-04T16:13:35;26.15;;;14.32;;
52542;SDS011;38449;52.696;6.186;2022-12-04T16:16:06;25.98;;;12.77;;
52542;SDS011;38449;52.696;6.186;2022-12-04T16:18:36;32.90;;;15.80;;
52542;SDS011;38449;52.696;6.186;2022-12-04T16:21:03;36.05;;;18.25;;
52542;SDS011;38449;52.696;6.186;2022-12-04T16:23:30;32.85;;;16.75;;
52542;SDS011;38449;52.696;6.186;2022-12-04T16:25:56;33.50;;;16.90;;
52542;SDS011;38449;52.696;6.186;2022-12-04T16:28:22;32.92;;;16.50;;
52542;SDS011;38449;52.696;6.186;2022-12-04T16:30:49;34.22;;;16.75;;
52542;SDS011;38449;52.696;6.186;2022-12-04T16:33:16;35.38;;;18.02;;
52542;SDS011;38449;52.696;6.186;2022-12-04T16:35:42;30.25;;;15.55;;
52542;SDS011;38449;52.696;6.186;2022-12-04T16:38:10;32.53;;;17.58;;
52542;SDS011;38449;52.696;6.186;2022-12-04T16:40:38;33.65;;;17.98;;
52542;SDS011;38449;52.696;6.186;2022-12-04T16:43:04;33.33;;;17.17;;
52542;SDS011;38449;52.696;6.186;2022-12-04T16:45:33;35.95;;;18.42;;
52542;SDS011;38449;52.696;6.186;2022-12-04T16:47:59;30.85;;;15.93;;
52542;SDS011;38449;52.696;6.186;2022-12-04T16:50:25;32.28;;;16.92;;
52542;SDS011;38449;52.696;6.186;2022-12-04T16:52:51;28.25;;;16.52;;
52542;SDS011;38449;52.696;6.186;2022-12-04T16:55:23;31.02;;;16.17;;
52542;SDS011;38449;52.696;6.186;2022-12-04T16:57:57;31.10;;;15.60;;
52542;SDS011;38449;52.696;6.186;2022-12-04T17:00:25;30.95;;;15.80;;
52542;SDS011;38449;52.696;6.186;2022-12-04T17:02:51;32.88;;;17.05;;
52542;SDS011;38449;52.696;6.186;2022-12-04T17:05:22;30.73;;;16.15;;
52542;SDS011;38449;52.696;6.186;2022-12-04T17:07:50;29.45;;;16.13;;
52542;SDS011;38449;52.696;6.186;2022-12-04T17:10:17;27.80;;;13.98;;